Terminal Aerodrome Forecast
Issued by NWS Corpus Christi, TX

Home | Current Version | Previous Version | Text Only | Print | Product List | Glossary On
Versions: 1 2 3 4 5 6 7 8 9 10 11 12 13 14 15 16
000
FTUS44 KCRP 220527
TAFVCT
TAF
KVCT 220527Z 2206/2306 09004KT P6SM SCT015 BKN025 OVC100
     FM220800 09003KT 5SM BR BKN011
     FM221600 12011KT P6SM VCTS BKN030CB
     FM230100 12008KT P6SM SCT015 BKN030=

USA.gov is the U.S. government's official web portal to all federal, state and local government web resources and services.